Time;durP1;ratioP1;P1;durP2;ratioP2;P2;SDS_P1;SDS_P2;PMS_P1;PMS_P2;Temp;Humidity;BMP_temperature;BMP_pressure;BME280_temperature;BME280_humidity;BME280_pressure;Samples;Min_cycle;Max_cycle;Signal;HPM_P1;HPM_P2
2023/07/07 03:07:24;;;;;;;;;;;12.90;99.90;;;;;;7295233;19;10953;-84
2023/07/07 03:10:08;;;;;;;;;;;12.90;99.90;;;;;;7293869;19;9272;-84
2023/07/07 07:25:54;;;;;;;;;;;21.50;99.90;;;;;;7287194;19;9333;-85
2023/07/07 07:38:40;;;;;;;;;;;23.10;95.10;;;;;;7282587;19;8978;-87
2023/07/07 07:46:27;;;;;;;;;;;24.00;90.70;;;;;;7314284;19;9228;-86
2023/07/07 08:41:18;;;;;;;;;;;25.30;69.00;;;;;;7306837;19;9814;-83
2023/07/07 08:44:14;;;;;;;;;;;25.30;68.40;;;;;;7304659;19;9347;-85
2023/07/07 14:14:51;;;;;;;;;;;27.20;49.30;;;;;;7253556;19;11060;-85
2023/07/07 14:17:52;;;;;;;;;;;27.30;49.90;;;;;;7261640;19;9376;-86
2023/07/07 14:21:11;;;;;;;;;;;27.30;50.80;;;;;;7273431;19;10508;-84
2023/07/07 14:23:50;;;;;;;;;;;27.10;52.50;;;;;;7290363;19;10943;-86
2023/07/07 14:26:44;;;;;;;;;;;27.00;52.40;;;;;;7298054;19;9527;-87
2023/07/07 14:29:32;;;;;;;;;;;27.10;51.50;;;;;;7298334;19;9456;-87
2023/07/07 14:32:26;;;;;;;;;;;27.10;52.30;;;;;;7299904;19;9365;-86
2023/07/07 14:41:47;;;;;;;;;;;26.90;50.10;;;;;;7287742;19;9310;-86
2023/07/07 15:25:43;;;;;;;;;;;27.10;46.90;;;;;;7291425;19;9891;-86
2023/07/07 15:28:37;;;;;;;;;;;27.10;46.40;;;;;;7294037;19;9170;-86
2023/07/07 15:35:06;;;;;;;;;;;27.10;47.70;;;;;;7292972;19;9455;-85
2023/07/07 15:41:38;;;;;;;;;;;26.80;48.70;;;;;;7282789;19;9566;-86
2023/07/07 16:28:32;;;;;;;;;;;26.40;45.80;;;;;;7303449;19;8995;-83
2023/07/07 16:31:30;;;;;;;;;;;26.40;48.20;;;;;;7293985;19;9253;-85
2023/07/07 16:40:51;;;;;;;;;;;26.30;49.90;;;;;;7298909;19;9252;-84
2023/07/07 16:47:50;;;;;;;;;;;26.20;46.80;;;;;;7283930;19;9162;-84
2023/07/07 17:05:43;;;;;;;;;;;26.00;47.60;;;;;;7293079;19;9424;-84
2023/07/07 17:15:46;;;;;;;;;;;25.90;47.80;;;;;;7312954;19;9279;-84
2023/07/07 17:18:34;;;;;;;;;;;25.90;48.90;;;;;;7295178;19;10276;-84
2023/07/07 20:01:58;;;;;;;;;;;21.00;71.10;;;;;;7249511;19;10722;-82
2023/07/07 20:04:34;;;;;;;;;;;20.90;71.70;;;;;;7309444;19;9490;-82
2023/07/07 20:07:27;;;;;;;;;;;20.80;72.70;;;;;;7306620;19;9272;-84
2023/07/07 20:10:43;;;;;;;;;;;20.70;73.30;;;;;;7330143;19;9281;-85
2023/07/07 20:13:32;;;;;;;;;;;20.60;74.50;;;;;;7298957;19;10127;-85
2023/07/07 20:16:02;;;;;;;;;;;20.50;76.00;;;;;;7304050;19;9288;-85
2023/07/07 20:18:33;;;;;;;;;;;20.40;77.70;;;;;;7301628;19;9362;-85
2023/07/07 20:21:03;;;;;;;;;;;20.30;79.90;;;;;;7302377;19;10299;-84
2023/07/07 20:23:32;;;;;;;;;;;20.10;81.60;;;;;;7299481;19;10592;-85
2023/07/07 20:26:02;;;;;;;;;;;20.00;84.60;;;;;;7300786;19;9300;-85
2023/07/07 20:28:37;;;;;;;;;;;19.90;86.80;;;;;;7302771;19;9336;-85
2023/07/07 20:31:07;;;;;;;;;;;19.80;90.00;;;;;;7300331;19;10590;-85
2023/07/07 20:33:37;;;;;;;;;;;19.70;90.80;;;;;;7300943;19;9256;-84
2023/07/07 20:36:13;;;;;;;;;;;19.60;91.70;;;;;;7302931;19;9264;-84
2023/07/07 20:38:50;;;;;;;;;;;19.50;91.90;;;;;;7294763;19;9280;-83
2023/07/07 20:41:57;;;;;;;;;;;19.40;92.30;;;;;;7312179;19;9386;-83
2023/07/07 20:44:31;;;;;;;;;;;19.40;92.90;;;;;;7296615;19;11324;-83
2023/07/07 20:47:01;;;;;;;;;;;19.40;93.50;;;;;;7297587;19;10475;-84
2023/07/07 20:49:31;;;;;;;;;;;19.30;94.10;;;;;;7301342;19;9359;-83
2023/07/07 20:52:01;;;;;;;;;;;19.20;94.20;;;;;;7299065;19;10363;-83
2023/07/07 20:54:31;;;;;;;;;;;19.10;95.20;;;;;;7297830;19;9361;-83
2023/07/07 20:57:02;;;;;;;;;;;19.10;95.50;;;;;;7300284;19;10611;-83
2023/07/07 20:59:37;;;;;;;;;;;19.00;96.10;;;;;;7299126;19;9299;-83
2023/07/07 21:02:17;;;;;;;;;;;19.00;97.10;;;;;;7301854;19;9452;-82
2023/07/07 21:04:50;;;;;;;;;;;18.90;96.90;;;;;;7299687;19;9228;-82
2023/07/07 21:07:21;;;;;;;;;;;18.90;97.30;;;;;;7301436;19;9834;-82
2023/07/07 21:09:51;;;;;;;;;;;18.90;98.10;;;;;;7300464;19;9248;-83
2023/07/07 21:12:22;;;;;;;;;;;18.80;98.50;;;;;;7299946;19;9059;-83
2023/07/07 21:14:56;;;;;;;;;;;18.70;98.70;;;;;;7299850;19;9247;-83
2023/07/07 21:17:26;;;;;;;;;;;18.70;99.40;;;;;;7295653;19;9106;-83
2023/07/07 21:19:56;;;;;;;;;;;18.60;99.50;;;;;;7289614;19;9366;-82
2023/07/07 21:22:27;;;;;;;;;;;18.60;99.80;;;;;;7299017;19;9272;-83
2023/07/07 21:28:26;;;;;;;;;;;18.50;99.90;;;;;;7288005;19;10370;-83
2023/07/07 21:31:03;;;;;;;;;;;18.40;99.90;;;;;;7300738;19;9257;-84
2023/07/07 21:33:35;;;;;;;;;;;18.40;99.90;;;;;;7297259;19;9481;-84
2023/07/07 21:36:08;;;;;;;;;;;18.40;99.90;;;;;;7303077;19;9621;-83
2023/07/07 21:38:38;;;;;;;;;;;18.40;99.90;;;;;;7299300;19;9393;-84
2023/07/07 21:41:12;;;;;;;;;;;18.40;99.90;;;;;;7301913;19;9351;-83
2023/07/07 21:43:42;;;;;;;;;;;18.40;99.90;;;;;;7296961;19;9336;-82
2023/07/07 21:46:19;;;;;;;;;;;18.40;99.90;;;;;;7298011;19;9294;-84
2023/07/07 21:48:50;;;;;;;;;;;18.40;99.90;;;;;;7299402;19;9400;-84
2023/07/07 21:51:22;;;;;;;;;;;18.40;99.90;;;;;;7304152;19;9288;-84
2023/07/07 21:53:52;;;;;;;;;;;18.30;99.90;;;;;;7300686;19;9216;-84
2023/07/07 21:56:41;;;;;;;;;;;18.30;99.90;;;;;;7302070;19;8945;-82
2023/07/07 21:59:23;;;;;;;;;;;18.20;99.90;;;;;;7297838;19;9358;-82
2023/07/07 22:14:47;;;;;;;;;;;18.10;99.90;;;;;;7293725;19;9184;-84
2023/07/07 22:17:20;;;;;;;;;;;18.00;99.90;;;;;;7298444;19;9494;-84
2023/07/07 22:19:49;;;;;;;;;;;18.00;99.90;;;;;;7299816;19;9256;-84
2023/07/07 22:22:19;;;;;;;;;;;17.90;99.90;;;;;;7299110;19;9387;-84
2023/07/07 22:28:37;;;;;;;;;;;17.90;99.90;;;;;;7308837;19;9888;-83
2023/07/07 22:56:14;;;;;;;;;;;17.50;99.90;;;;;;7310167;19;9573;-83
2023/07/07 23:02:27;;;;;;;;;;;17.50;99.90;;;;;;7290452;19;9972;-83
2023/07/07 23:05:43;;;;;;;;;;;17.50;99.90;;;;;;7313158;19;9239;-82
2023/07/07 23:08:49;;;;;;;;;;;17.50;99.90;;;;;;7280995;19;9314;-83
2023/07/07 23:31:07;;;;;;;;;;;17.10;99.90;;;;;;7309991;19;9384;-82
2023/07/07 23:39:57;;;;;;;;;;;17.00;99.90;;;;;;7291677;19;8932;-84
2023/07/07 23:43:12;;;;;;;;;;;17.00;99.90;;;;;;7306459;19;11784;-84
2023/07/07 23:46:34;;;;;;;;;;;16.90;99.90;;;;;;7282960;19;10230;-83
2023/07/07 23:52:33;;;;;;;;;;;16.90;99.90;;;;;;7285324;19;11199;-82
2023/07/07 23:55:28;;;;;;;;;;;16.80;99.90;;;;;;7298947;19;9221;-83
2023/07/07 23:58:08;;;;;;;;;;;16.80;99.90;;;;;;7288491;19;9830;-83
